Time;durP1;ratioP1;P1;durP2;ratioP2;P2;SDS_P1;SDS_P2;PMS_P1;PMS_P2;Temp;Humidity;BMP_temperature;BMP_pressure;BME280_temperature;BME280_humidity;BME280_pressure;Samples;Min_cycle;Max_cycle;Signal;HPM_P1;HPM_P2
2023/03/25 00:02:08;;;;;;;3.13;0.90;;;;;;;;;;7387946;19;19998;-71
2023/03/25 00:04:34;;;;;;;1.25;0.65;;;;;;;;;;7392008;19;19999;-70
2023/03/25 00:07:00;;;;;;;1.05;0.85;;;;;;;;;;7387348;19;20681;-71
2023/03/25 00:09:25;;;;;;;1.83;0.90;;;;;;;;;;7388102;19;20313;-69
2023/03/25 00:11:50;;;;;;;2.67;0.80;;;;;;;;;;7387708;19;20023;-71
2023/03/25 00:14:16;;;;;;;3.20;0.75;;;;;;;;;;7388596;19;20500;-71
2023/03/25 00:16:42;;;;;;;1.25;0.70;;;;;;;;;;7388050;19;20062;-69
2023/03/25 00:19:08;;;;;;;2.67;0.75;;;;;;;;;;7387545;19;20058;-69
2023/03/25 00:21:34;;;;;;;0.70;0.70;;;;;;;;;;7386910;19;20006;-70
2023/03/25 00:24:00;;;;;;;0.70;0.50;;;;;;;;;;7387759;19;20091;-71
2023/03/25 00:26:28;;;;;;;2.03;0.70;;;;;;;;;;7387363;19;20097;-74
2023/03/25 00:28:54;;;;;;;1.13;0.80;;;;;;;;;;7386146;19;20006;-71
2023/03/25 00:31:19;;;;;;;0.40;0.40;;;;;;;;;;7388080;19;20225;-70
2023/03/25 00:33:45;;;;;;;0.38;0.28;;;;;;;;;;7387645;19;20014;-70
2023/03/25 00:36:16;;;;;;;0.75;0.50;;;;;;;;;;7387606;19;20007;-68
2023/03/25 00:38:44;;;;;;;2.88;1.08;;;;;;;;;;7386761;19;20356;-69
2023/03/25 00:41:26;;;;;;;0.90;0.82;;;;;;;;;;7386544;19;19999;-70
2023/03/25 00:43:54;;;;;;;1.65;0.68;;;;;;;;;;7387110;19;20011;-69
2023/03/25 00:46:21;;;;;;;1.15;0.68;;;;;;;;;;7386542;19;20099;-69
2023/03/25 00:48:47;;;;;;;0.70;0.70;;;;;;;;;;7385240;19;20031;-70
2023/03/25 00:51:13;;;;;;;3.65;0.63;;;;;;;;;;7386304;19;19998;-70
2023/03/25 00:53:39;;;;;;;0.50;0.50;;;;;;;;;;7386786;19;20135;-70
2023/03/25 00:56:05;;;;;;;1.27;0.60;;;;;;;;;;7386974;19;20054;-71
2023/03/25 00:58:31;;;;;;;1.27;0.68;;;;;;;;;;7383143;19;20037;-70
2023/03/25 01:00:56;;;;;;;0.98;0.60;;;;;;;;;;7386211;19;20010;-69
2023/03/25 01:03:23;;;;;;;3.50;0.70;;;;;;;;;;7387444;19;20391;-71
2023/03/25 01:05:49;;;;;;;3.33;1.08;;;;;;;;;;7386455;19;20022;-70
2023/03/25 01:08:16;;;;;;;0.77;0.68;;;;;;;;;;7383971;19;20501;-70
2023/03/25 01:10:42;;;;;;;0.65;0.65;;;;;;;;;;7383660;19;20010;-70
2023/03/25 01:13:07;;;;;;;1.90;0.65;;;;;;;;;;7386119;19;20002;-70
2023/03/25 01:15:33;;;;;;;2.10;0.85;;;;;;;;;;7386098;19;20003;-69
2023/03/25 01:17:58;;;;;;;2.65;0.90;;;;;;;;;;7386544;19;20617;-70
2023/03/25 01:20:23;;;;;;;3.20;1.10;;;;;;;;;;7385667;19;20463;-69
2023/03/25 01:22:49;;;;;;;2.33;1.00;;;;;;;;;;7383840;19;20401;-70
2023/03/25 01:25:14;;;;;;;0.93;0.80;;;;;;;;;;7385604;19;20002;-70
2023/03/25 01:27:40;;;;;;;1.58;0.90;;;;;;;;;;7383835;19;20007;-70
2023/03/25 01:30:05;;;;;;;0.93;0.85;;;;;;;;;;7385116;19;20001;-70
2023/03/25 01:32:31;;;;;;;3.35;0.95;;;;;;;;;;7385263;19;20338;-71
2023/03/25 01:34:56;;;;;;;2.38;0.90;;;;;;;;;;7387631;19;20002;-69
2023/03/25 01:37:24;;;;;;;2.78;0.90;;;;;;;;;;7396296;19;20070;-70
2023/03/25 01:39:49;;;;;;;3.22;1.00;;;;;;;;;;7392916;19;20010;-70
2023/03/25 01:42:15;;;;;;;3.47;1.10;;;;;;;;;;7392117;19;20007;-70
2023/03/25 01:44:47;;;;;;;2.70;1.00;;;;;;;;;;7392782;19;20679;-70
2023/03/25 01:47:12;;;;;;;4.30;0.95;;;;;;;;;;7390608;19;20323;-70
2023/03/25 01:49:43;;;;;;;3.15;1.33;;;;;;;;;;7392394;19;20003;-70
2023/03/25 01:52:13;;;;;;;4.55;1.15;;;;;;;;;;7391842;19;20002;-71
2023/03/25 01:54:39;;;;;;;1.45;0.93;;;;;;;;;;7390740;19;20033;-70
2023/03/25 01:57:07;;;;;;;4.80;1.60;;;;;;;;;;7391353;19;20016;-69
2023/03/25 01:59:32;;;;;;;6.65;1.70;;;;;;;;;;7392204;19;20006;-69
2023/03/25 02:02:02;;;;;;;2.67;1.50;;;;;;;;;;7391075;19;20015;-70
2023/03/25 02:04:39;;;;;;;4.28;1.48;;;;;;;;;;7391840;19;20403;-69
2023/03/25 02:07:07;;;;;;;5.35;1.48;;;;;;;;;;7390610;19;19999;-70
2023/03/25 02:09:33;;;;;;;7.57;1.85;;;;;;;;;;7391734;19;20531;-72
2023/03/25 02:11:58;;;;;;;3.33;1.45;;;;;;;;;;7392032;19;19999;-70
2023/03/25 02:14:27;;;;;;;6.07;1.63;;;;;;;;;;7393928;19;20356;-70
2023/03/25 02:17:27;;;;;;;2.17;1.33;;;;;;;;;;7390766;19;20002;-71
2023/03/25 02:20:18;;;;;;;3.92;1.45;;;;;;;;;;7392312;19;20077;-71
2023/03/25 02:23:01;;;;;;;2.03;1.20;;;;;;;;;;7391398;19;20003;-71
2023/03/25 02:26:04;;;;;;;2.15;1.15;;;;;;;;;;7391016;19;20483;-71
2023/03/25 02:28:40;;;;;;;2.13;0.90;;;;;;;;;;7393693;19;20358;-71
2023/03/25 02:31:27;;;;;;;2.45;1.27;;;;;;;;;;7390693;19;19998;-70
2023/03/25 02:34:22;;;;;;;0.70;0.70;;;;;;;;;;7391292;19;20002;-70
2023/03/25 02:37:10;;;;;;;3.67;1.35;;;;;;;;;;7390875;19;20074;-70
2023/03/25 02:39:47;;;;;;;2.47;1.20;;;;;;;;;;7390824;19;19999;-70
2023/03/25 02:42:16;;;;;;;3.45;1.25;;;;;;;;;;7388523;19;20010;-70
2023/03/25 02:44:48;;;;;;;3.85;1.30;;;;;;;;;;7391461;19;20006;-71
2023/03/25 02:47:17;;;;;;;2.38;1.15;;;;;;;;;;7386911;19;20005;-69
2023/03/25 02:49:48;;;;;;;4.35;1.05;;;;;;;;;;7390674;19;20003;-70
2023/03/25 02:52:23;;;;;;;3.77;1.30;;;;;;;;;;7389215;19;20007;-72
2023/03/25 02:54:51;;;;;;;1.25;0.85;;;;;;;;;;7390871;19;20002;-70
2023/03/25 02:57:20;;;;;;;2.10;1.05;;;;;;;;;;7389778;19;20002;-69
2023/03/25 02:59:47;;;;;;;1.55;0.88;;;;;;;;;;7390630;19;20010;-70
2023/03/25 03:02:14;;;;;;;3.72;1.23;;;;;;;;;;7390022;19;20372;-70
2023/03/25 03:04:54;;;;;;;2.55;0.98;;;;;;;;;;7390643;19;20007;-69
2023/03/25 03:07:24;;;;;;;2.20;0.88;;;;;;;;;;7389934;19;20303;-69
2023/03/25 03:09:56;;;;;;;1.17;0.90;;;;;;;;;;7390218;19;20007;-72
2023/03/25 03:12:34;;;;;;;4.38;1.13;;;;;;;;;;7389629;19;20010;-73
2023/03/25 03:15:14;;;;;;;1.77;1.00;;;;;;;;;;7389813;19;19998;-70
2023/03/25 03:18:06;;;;;;;1.27;1.00;;;;;;;;;;7391091;19;19991;-70
2023/03/25 03:21:05;;;;;;;1.92;1.02;;;;;;;;;;7387301;19;19999;-69
2023/03/25 03:23:53;;;;;;;1.83;0.80;;;;;;;;;;7389865;19;20272;-70
2023/03/25 03:26:33;;;;;;;3.17;1.10;;;;;;;;;;7389719;19;20348;-69
2023/03/25 03:29:19;;;;;;;2.58;1.10;;;;;;;;;;7387805;19;20006;-72
2023/03/25 03:31:54;;;;;;;2.15;1.10;;;;;;;;;;7388591;19;19998;-70
2023/03/25 03:34:39;;;;;;;2.78;1.33;;;;;;;;;;7388856;19;19999;-69
2023/03/25 03:37:07;;;;;;;2.50;1.30;;;;;;;;;;7388441;19;20007;-70
2023/03/25 03:39:35;;;;;;;1.88;1.40;;;;;;;;;;7390282;19;19994;-70
2023/03/25 03:42:12;;;;;;;2.38;1.40;;;;;;;;;;7388744;19;20007;-71
2023/03/25 03:44:41;;;;;;;2.28;1.25;;;;;;;;;;7388485;19;20066;-70
2023/03/25 03:47:21;;;;;;;2.60;1.38;;;;;;;;;;7387482;19;20029;-70
2023/03/25 03:49:52;;;;;;;2.50;1.40;;;;;;;;;;7388234;19;20022;-69
2023/03/25 03:52:32;;;;;;;3.55;1.35;;;;;;;;;;7386295;19;20027;-70
2023/03/25 03:55:05;;;;;;;2.78;1.30;;;;;;;;;;7388344;19;20488;-70
2023/03/25 03:57:40;;;;;;;2.67;1.17;;;;;;;;;;7386660;19;20007;-69
2023/03/25 04:00:08;;;;;;;3.03;1.30;;;;;;;;;;7387467;19;19995;-70
2023/03/25 04:03:01;;;;;;;1.83;1.05;;;;;;;;;;7387833;19;20003;-70
2023/03/25 04:05:29;;;;;;;2.00;1.13;;;;;;;;;;7387727;19;20345;-71
2023/03/25 04:08:10;;;;;;;3.75;1.63;;;;;;;;;;7388526;19;20002;-71
2023/03/25 04:10:44;;;;;;;4.40;1.58;;;;;;;;;;7385736;19;20367;-71
2023/03/25 04:13:13;;;;;;;3.67;1.58;;;;;;;;;;7388029;19;20084;-70
2023/03/25 04:15:40;;;;;;;3.28;1.63;;;;;;;;;;7387665;19;20062;-70
2023/03/25 04:18:05;;;;;;;3.63;1.50;;;;;;;;;;7386359;19;20022;-70
2023/03/25 04:20:35;;;;;;;1.60;1.10;;;;;;;;;;7386950;19;19998;-70
2023/03/25 04:23:03;;;;;;;3.92;1.45;;;;;;;;;;7385755;19;20013;-70
2023/03/25 04:25:31;;;;;;;3.85;1.60;;;;;;;;;;7386066;19;20009;-70
2023/03/25 04:27:57;;;;;;;6.55;1.40;;;;;;;;;;7386614;19;20007;-70
2023/03/25 04:30:24;;;;;;;1.90;1.23;;;;;;;;;;7386335;19;20337;-70
2023/03/25 04:32:50;;;;;;;5.22;1.50;;;;;;;;;;7387393;19;20412;-68
2023/03/25 04:35:18;;;;;;;2.97;1.40;;;;;;;;;;7390169;19;20019;-71
2023/03/25 04:37:44;;;;;;;1.90;1.35;;;;;;;;;;7386145;19;20484;-70
2023/03/25 04:40:12;;;;;;;2.25;1.30;;;;;;;;;;7386362;19;20007;-71
2023/03/25 04:42:41;;;;;;;4.13;1.58;;;;;;;;;;7385343;19;20018;-70
2023/03/25 04:45:07;;;;;;;3.42;1.75;;;;;;;;;;7386889;19;20415;-70
2023/03/25 04:47:34;;;;;;;3.58;1.10;;;;;;;;;;7385620;19;20451;-70
2023/03/25 04:50:00;;;;;;;3.60;1.30;;;;;;;;;;7386922;19;20006;-70
2023/03/25 04:52:26;;;;;;;3.78;1.10;;;;;;;;;;7386123;19;19999;-69
2023/03/25 04:54:51;;;;;;;4.78;1.65;;;;;;;;;;7384717;19;20350;-70
2023/03/25 04:57:17;;;;;;;2.22;1.17;;;;;;;;;;7385904;19;20460;-70
2023/03/25 04:59:42;;;;;;;3.88;1.48;;;;;;;;;;7386435;19;19999;-71
2023/03/25 05:02:12;;;;;;;3.03;1.30;;;;;;;;;;7385679;19;20006;-70
2023/03/25 05:04:40;;;;;;;3.15;1.48;;;;;;;;;;7384466;19;20393;-70
2023/03/25 05:07:06;;;;;;;5.60;1.60;;;;;;;;;;7385348;19;20013;-70
2023/03/25 05:09:32;;;;;;;5.97;1.50;;;;;;;;;;7387525;19;19998;-69
2023/03/25 05:11:57;;;;;;;2.53;1.27;;;;;;;;;;7393104;19;20066;-70
2023/03/25 05:14:22;;;;;;;4.05;1.38;;;;;;;;;;7394142;19;20077;-69
2023/03/25 05:16:48;;;;;;;3.95;1.50;;;;;;;;;;7397651;19;20365;-69
2023/03/25 05:19:17;;;;;;;5.60;1.75;;;;;;;;;;7393545;19;20348;-70
2023/03/25 05:21:43;;;;;;;7.95;1.60;;;;;;;;;;7393043;19;20019;-70
2023/03/25 05:24:12;;;;;;;3.95;1.60;;;;;;;;;;7396879;19;19995;-69
2023/03/25 05:26:38;;;;;;;5.68;1.90;;;;;;;;;;7392295;19;20027;-69
2023/03/25 05:29:07;;;;;;;6.88;2.00;;;;;;;;;;7391315;19;20456;-68
2023/03/25 05:31:32;;;;;;;4.40;1.70;;;;;;;;;;7392841;19;20054;-69
2023/03/25 05:33:58;;;;;;;4.97;1.95;;;;;;;;;;7393905;19;20015;-69
2023/03/25 05:36:26;;;;;;;4.03;1.80;;;;;;;;;;7391197;19;20025;-69
2023/03/25 05:38:57;;;;;;;3.15;1.60;;;;;;;;;;7394323;19;20043;-70
2023/03/25 05:41:31;;;;;;;4.78;1.88;;;;;;;;;;7392683;19;19998;-70
2023/03/25 05:43:59;;;;;;;4.47;1.85;;;;;;;;;;7393473;19;20340;-69
2023/03/25 05:46:24;;;;;;;4.63;1.70;;;;;;;;;;7393799;19;20402;-71
2023/03/25 05:48:50;;;;;;;2.38;1.50;;;;;;;;;;7391063;19;20344;-71
2023/03/25 05:51:20;;;;;;;2.45;1.63;;;;;;;;;;7392460;19;20027;-71
2023/03/25 05:53:50;;;;;;;3.17;1.25;;;;;;;;;;7392977;19;20560;-71
2023/03/25 05:56:20;;;;;;;2.92;1.40;;;;;;;;;;7392578;19;20027;-70
2023/03/25 05:58:47;;;;;;;4.00;1.35;;;;;;;;;;7390273;19;20475;-71
2023/03/25 06:01:13;;;;;;;5.70;1.42;;;;;;;;;;7391987;19;19998;-70
2023/03/25 06:03:39;;;;;;;3.67;1.15;;;;;;;;;;7392967;19;20002;-70
2023/03/25 06:06:12;;;;;;;3.92;1.15;;;;;;;;;;7390286;19;20012;-71
2023/03/25 06:08:40;;;;;;;1.92;0.93;;;;;;;;;;7390564;19;20007;-71
2023/03/25 06:11:09;;;;;;;4.32;0.80;;;;;;;;;;7391002;19;20443;-70
2023/03/25 06:13:38;;;;;;;3.83;1.00;;;;;;;;;;7391946;19;20102;-71
2023/03/25 06:16:04;;;;;;;3.08;1.40;;;;;;;;;;7395133;19;20172;-70
2023/03/25 06:18:31;;;;;;;3.20;1.60;;;;;;;;;;7390082;19;20002;-69
2023/03/25 06:20:58;;;;;;;2.47;1.50;;;;;;;;;;7390811;19;20002;-70
2023/03/25 06:23:25;;;;;;;3.30;1.70;;;;;;;;;;7391801;19;20026;-69
2023/03/25 06:25:51;;;;;;;2.00;1.40;;;;;;;;;;7391808;19;20011;-70
2023/03/25 06:28:17;;;;;;;2.63;1.30;;;;;;;;;;7389089;19;20019;-70
2023/03/25 06:30:46;;;;;;;2.63;1.48;;;;;;;;;;7390783;19;20035;-70
2023/03/25 06:33:13;;;;;;;3.20;1.80;;;;;;;;;;7395394;19;20010;-70
2023/03/25 06:35:41;;;;;;;3.00;1.65;;;;;;;;;;7391149;19;20376;-69
2023/03/25 06:38:08;;;;;;;6.50;1.83;;;;;;;;;;7389370;19;20110;-70
2023/03/25 06:40:37;;;;;;;5.63;1.65;;;;;;;;;;7390728;19;20031;-70
2023/03/25 06:43:04;;;;;;;5.85;1.60;;;;;;;;;;7390934;19;20026;-69
2023/03/25 06:45:29;;;;;;;3.83;1.30;;;;;;;;;;7390755;19;20019;-70
2023/03/25 06:47:55;;;;;;;3.30;1.30;;;;;;;;;;7388932;19;20011;-72
2023/03/25 06:50:20;;;;;;;5.60;1.70;;;;;;;;;;7390057;19;20001;-69
2023/03/25 06:52:45;;;;;;;7.88;1.35;;;;;;;;;;7390855;19;20014;-70
2023/03/25 06:55:11;;;;;;;5.05;1.50;;;;;;;;;;7390407;19;20002;-70
2023/03/25 06:57:36;;;;;;;1.92;1.20;;;;;;;;;;7389263;19;20003;-70
2023/03/25 07:00:04;;;;;;;2.72;1.40;;;;;;;;;;7390381;19;20007;-70
2023/03/25 07:02:30;;;;;;;3.72;1.63;;;;;;;;;;7389759;19;20002;-69
2023/03/25 07:04:55;;;;;;;5.10;1.58;;;;;;;;;;7390107;19;20193;-70
2023/03/25 07:07:21;;;;;;;4.28;1.45;;;;;;;;;;7388891;19;20117;-70
2023/03/25 07:09:50;;;;;;;5.50;1.55;;;;;;;;;;7389993;19;20025;-70
2023/03/25 07:12:15;;;;;;;4.80;1.30;;;;;;;;;;7389383;19;20474;-70
2023/03/25 07:14:41;;;;;;;7.05;1.60;;;;;;;;;;7389997;19;19999;-70
2023/03/25 07:17:07;;;;;;;4.25;1.20;;;;;;;;;;7393561;19;20003;-70
2023/03/25 07:19:32;;;;;;;6.07;1.40;;;;;;;;;;7390031;19;19998;-71
2023/03/25 07:21:57;;;;;;;4.85;1.35;;;;;;;;;;7389240;19;20380;-69
2023/03/25 07:24:23;;;;;;;6.60;1.60;;;;;;;;;;7389343;19;20002;-71
2023/03/25 07:26:48;;;;;;;6.00;1.55;;;;;;;;;;7388790;19;20005;-69
2023/03/25 07:29:14;;;;;;;5.22;1.73;;;;;;;;;;7389707;19;20019;-70
2023/03/25 07:31:40;;;;;;;9.02;1.90;;;;;;;;;;7387025;19;20005;-70
2023/03/25 07:34:07;;;;;;;3.78;1.48;;;;;;;;;;7387987;19;20046;-71
2023/03/25 07:36:32;;;;;;;6.13;1.67;;;;;;;;;;7388830;19;20006;-71
2023/03/25 07:38:58;;;;;;;3.83;1.60;;;;;;;;;;7389384;19;19999;-70
2023/03/25 07:41:23;;;;;;;8.65;1.73;;;;;;;;;;7388470;19;20470;-70
2023/03/25 07:43:48;;;;;;;6.70;1.65;;;;;;;;;;7393430;19;20012;-70
2023/03/25 07:46:14;;;;;;;8.88;2.40;;;;;;;;;;7388736;19;19995;-70
2023/03/25 07:48:40;;;;;;;8.00;1.92;;;;;;;;;;7385277;19;20054;-71
2023/03/25 07:51:05;;;;;;;9.50;2.00;;;;;;;;;;7388358;19;20006;-70
2023/03/25 07:53:31;;;;;;;5.45;1.60;;;;;;;;;;7388553;19;20018;-69
2023/03/25 07:55:56;;;;;;;9.20;2.13;;;;;;;;;;7388489;19;20062;-69
2023/03/25 07:58:21;;;;;;;9.00;2.30;;;;;;;;;;7386484;19;20471;-71
2023/03/25 08:00:47;;;;;;;5.53;1.92;;;;;;;;;;7387777;19;19995;-70
2023/03/25 08:03:13;;;;;;;10.88;1.92;;;;;;;;;;7387931;19;20019;-70
2023/03/25 08:05:44;;;;;;;8.25;1.73;;;;;;;;;;7387707;19;20009;-70
2023/03/25 08:08:09;;;;;;;9.80;2.08;;;;;;;;;;7386169;19;20014;-70
2023/03/25 08:10:35;;;;;;;14.45;2.45;;;;;;;;;;7387064;19;19998;-69
2023/03/25 08:13:00;;;;;;;10.02;2.20;;;;;;;;;;7387612;19;20455;-69
2023/03/25 08:15:26;;;;;;;6.70;2.10;;;;;;;;;;7387910;19;19998;-71
2023/03/25 08:17:52;;;;;;;8.75;1.85;;;;;;;;;;7386977;19;20007;-71
2023/03/25 08:20:18;;;;;;;7.65;2.20;;;;;;;;;;7385592;19;20071;-70
2023/03/25 08:22:44;;;;;;;9.18;1.85;;;;;;;;;;7391157;19;19998;-70
2023/03/25 08:25:10;;;;;;;12.55;2.47;;;;;;;;;;7386227;19;19998;-70
2023/03/25 08:27:35;;;;;;;11.93;1.88;;;;;;;;;;7386702;19;20058;-69
2023/03/25 08:30:00;;;;;;;7.57;1.88;;;;;;;;;;7388207;19;20354;-69
2023/03/25 08:32:27;;;;;;;10.02;2.20;;;;;;;;;;7385268;19;20029;-69
2023/03/25 08:34:53;;;;;;;8.85;1.90;;;;;;;;;;7388159;19;19999;-70
2023/03/25 08:37:18;;;;;;;7.80;1.83;;;;;;;;;;7387299;19;20346;-69
2023/03/25 08:39:44;;;;;;;7.53;1.90;;;;;;;;;;7387625;19;19991;-70
2023/03/25 08:42:12;;;;;;;11.20;1.85;;;;;;;;;;7387009;19;19998;-70
2023/03/25 08:44:37;;;;;;;6.65;1.70;;;;;;;;;;7388010;19;19998;-70
2023/03/25 08:47:03;;;;;;;13.98;2.00;;;;;;;;;;7393251;19;20013;-71
2023/03/25 08:49:29;;;;;;;6.35;1.77;;;;;;;;;;7394247;19;19995;-70
2023/03/25 08:51:56;;;;;;;7.40;1.63;;;;;;;;;;7394207;19;19995;-70
2023/03/25 08:54:22;;;;;;;10.95;1.80;;;;;;;;;;7394408;19;20357;-69
2023/03/25 08:56:48;;;;;;;11.23;1.77;;;;;;;;;;7393770;19;19994;-69
2023/03/25 08:59:13;;;;;;;6.82;1.60;;;;;;;;;;7393879;19;20364;-70
2023/03/25 09:01:39;;;;;;;5.63;2.53;;;;;;;;;;7393723;19;19998;-70
2023/03/25 09:04:04;;;;;;;9.02;1.88;;;;;;;;;;7394125;19;20474;-70
2023/03/25 09:06:29;;;;;;;3.92;1.77;;;;;;;;;;7391847;19;19990;-70
2023/03/25 09:08:55;;;;;;;8.82;2.40;;;;;;;;;;7390687;19;20023;-69
2023/03/25 09:11:21;;;;;;;6.88;2.08;;;;;;;;;;7393895;19;19997;-69
2023/03/25 09:13:46;;;;;;;4.68;1.73;;;;;;;;;;7392161;19;19995;-71
2023/03/25 09:16:11;;;;;;;8.57;2.15;;;;;;;;;;7393619;19;19994;-68
2023/03/25 09:18:37;;;;;;;5.80;1.70;;;;;;;;;;7389703;19;19999;-70
2023/03/25 09:21:03;;;;;;;7.63;2.25;;;;;;;;;;7396099;19;20368;-69
2023/03/25 09:23:28;;;;;;;4.63;2.03;;;;;;;;;;7390945;19;20464;-70
2023/03/25 09:25:55;;;;;;;11.88;2.55;;;;;;;;;;7393321;19;20002;-70
2023/03/25 09:28:20;;;;;;;9.23;1.90;;;;;;;;;;7388837;19;20009;-70
2023/03/25 09:30:46;;;;;;;9.18;2.00;;;;;;;;;;7392953;19;20085;-71
2023/03/25 09:33:11;;;;;;;5.80;1.60;;;;;;;;;;7391516;19;20434;-70
2023/03/25 09:35:39;;;;;;;7.78;1.85;;;;;;;;;;7393019;19;19998;-71
2023/03/25 09:38:05;;;;;;;7.75;1.90;;;;;;;;;;7390921;19;20006;-69
2023/03/25 09:40:30;;;;;;;8.10;2.28;;;;;;;;;;7392192;19;20014;-71
2023/03/25 09:43:10;;;;;;;11.00;2.33;;;;;;;;;;7392154;19;20002;-71
2023/03/25 09:45:40;;;;;;;2.60;1.07;;;;;;;;;;7391099;19;20002;-71
2023/03/25 09:48:21;;;;;;;5.38;0.90;;;;;;;;;;7388346;19;19994;-69
2023/03/25 09:50:47;;;;;;;4.43;1.00;;;;;;;;;;7395479;19;19999;-68
2023/03/25 09:53:26;;;;;;;5.40;1.02;;;;;;;;;;7391974;19;20006;-70
2023/03/25 09:55:52;;;;;;;6.57;1.08;;;;;;;;;;7391095;19;20488;-70
2023/03/25 09:58:26;;;;;;;0.82;0.63;;;;;;;;;;7389998;19;20003;-70
2023/03/25 10:01:14;;;;;;;4.78;0.90;;;;;;;;;;7391501;19;19998;-70
2023/03/25 10:04:00;;;;;;;2.55;0.77;;;;;;;;;;7392062;19;20034;-70
2023/03/25 10:06:26;;;;;;;2.38;1.02;;;;;;;;;;7391435;19;20062;-70
2023/03/25 10:09:13;;;;;;;0.25;0.20;;;;;;;;;;7389350;19;20003;-70
2023/03/25 10:12:05;;;;;;;2.15;0.70;;;;;;;;;;7390953;19;20054;-70
2023/03/25 10:14:47;;;;;;;1.92;0.70;;;;;;;;;;7391395;19;20476;-70
2023/03/25 10:17:25;;;;;;;1.15;0.70;;;;;;;;;;7390905;19;20015;-70
2023/03/25 10:20:11;;;;;;;1.75;0.70;;;;;;;;;;7391830;19;20025;-70
2023/03/25 10:23:01;;;;;;;2.47;0.70;;;;;;;;;;7391104;19;20006;-70
2023/03/25 10:25:32;;;;;;;3.08;0.98;;;;;;;;;;7391528;19;20332;-70
2023/03/25 10:27:59;;;;;;;2.93;0.93;;;;;;;;;;7389513;19;20009;-70
2023/03/25 10:30:29;;;;;;;1.75;0.75;;;;;;;;;;7390608;19;20015;-70
2023/03/25 10:33:02;;;;;;;1.92;0.88;;;;;;;;;;7391386;19;20356;-71
2023/03/25 10:35:29;;;;;;;1.88;0.93;;;;;;;;;;7391238;19;20006;-70
2023/03/25 10:38:06;;;;;;;3.70;1.00;;;;;;;;;;7386978;19;20337;-71
2023/03/25 10:40:43;;;;;;;2.50;0.80;;;;;;;;;;7389241;19;20393;-70
2023/03/25 10:43:20;;;;;;;3.55;0.90;;;;;;;;;;7389405;19;20407;-69
2023/03/25 10:45:47;;;;;;;4.25;1.20;;;;;;;;;;7391048;19;20027;-69
2023/03/25 10:48:18;;;;;;;3.67;1.10;;;;;;;;;;7390030;19;20072;-71
2023/03/25 10:50:44;;;;;;;;;;;;;;;;;;7393800;19;20291;-69
2023/03/25 10:53:23;;;;;;;4.93;1.15;;;;;;;;;;7391345;19;20341;-70
2023/03/25 10:55:54;;;;;;;1.27;1.00;;;;;;;;;;7392133;19;20006;-69
2023/03/25 10:58:20;;;;;;;3.30;1.00;;;;;;;;;;7390678;19;20014;-70
2023/03/25 11:00:46;;;;;;;3.17;1.30;;;;;;;;;;7394348;19;20392;-70
2023/03/25 11:03:24;;;;;;;4.78;1.20;;;;;;;;;;7388388;19;20070;-70
2023/03/25 11:05:50;;;;;;;4.68;1.55;;;;;;;;;;7394607;19;20356;-69
2023/03/25 11:08:20;;;;;;;2.67;1.20;;;;;;;;;;7385389;19;19999;-69
2023/03/25 11:10:54;;;;;;;3.83;1.13;;;;;;;;;;7391431;19;20366;-70
2023/03/25 11:13:24;;;;;;;5.63;1.30;;;;;;;;;;7391814;19;20417;-69
2023/03/25 11:15:52;;;;;;;2.53;1.05;;;;;;;;;;7389916;19;20003;-69
2023/03/25 11:18:35;;;;;;;2.50;1.13;;;;;;;;;;7388170;19;19999;-69
2023/03/25 11:21:10;;;;;;;4.38;1.27;;;;;;;;;;7390528;19;20088;-69
2023/03/25 11:23:42;;;;;;;4.95;1.27;;;;;;;;;;7390542;19;20002;-70
2023/03/25 11:26:21;;;;;;;3.45;1.17;;;;;;;;;;7388926;19;20324;-69
2023/03/25 11:28:53;;;;;;;4.68;1.23;;;;;;;;;;7388981;19;20002;-70
2023/03/25 11:31:22;;;;;;;5.00;1.30;;;;;;;;;;7389856;19;20752;-70
2023/03/25 11:34:10;;;;;;;2.83;1.20;;;;;;;;;;7390011;19;20002;-70
2023/03/25 11:36:39;;;;;;;4.15;1.35;;;;;;;;;;7387993;19;19998;-70
2023/03/25 11:39:21;;;;;;;3.53;1.17;;;;;;;;;;7388314;19;19999;-71
2023/03/25 11:41:47;;;;;;;2.72;1.17;;;;;;;;;;7389197;19;19999;-69
2023/03/25 11:44:27;;;;;;;2.92;0.88;;;;;;;;;;7387927;19;20009;-71
2023/03/25 11:47:00;;;;;;;3.58;1.20;;;;;;;;;;7389253;19;19998;-71
2023/03/25 11:49:26;;;;;;;1.70;0.80;;;;;;;;;;7389730;19;20378;-70
2023/03/25 11:52:08;;;;;;;4.30;1.30;;;;;;;;;;7387057;19;20012;-69
2023/03/25 11:54:35;;;;;;;4.88;1.15;;;;;;;;;;7393997;19;20003;-69
2023/03/25 11:57:04;;;;;;;3.17;1.20;;;;;;;;;;7389033;19;19994;-69
2023/03/25 11:59:41;;;;;;;3.85;1.00;;;;;;;;;;7389499;19;19994;-69
2023/03/25 12:02:27;;;;;;;2.63;0.88;;;;;;;;;;7386900;19;20002;-71
2023/03/25 12:05:02;;;;;;;5.10;1.30;;;;;;;;;;7386803;19;20023;-69
2023/03/25 12:07:28;;;;;;;3.30;0.90;;;;;;;;;;7387379;19;19998;-70
2023/03/25 12:09:56;;;;;;;3.83;1.00;;;;;;;;;;7388870;19;20079;-70
2023/03/25 12:12:39;;;;;;;2.65;1.20;;;;;;;;;;7388118;19;20427;-70
2023/03/25 12:15:23;;;;;;;3.42;1.13;;;;;;;;;;7388860;19;20002;-71
2023/03/25 12:18:25;;;;;;;3.70;1.20;;;;;;;;;;7387999;19;20006;-69
2023/03/25 12:20:57;;;;;;;2.13;0.90;;;;;;;;;;7390527;19;20422;-69
2023/03/25 12:23:31;;;;;;;5.18;1.20;;;;;;;;;;7388389;19;20002;-70
2023/03/25 12:26:03;;;;;;;3.55;1.10;;;;;;;;;;7388144;19;20005;-70
2023/03/25 12:28:47;;;;;;;3.92;1.10;;;;;;;;;;7386470;19;20005;-69
2023/03/25 12:31:39;;;;;;;3.45;1.23;;;;;;;;;;7387676;19;20356;-70
2023/03/25 12:34:29;;;;;;;5.18;1.30;;;;;;;;;;7387930;19;20058;-71
2023/03/25 12:37:25;;;;;;;5.00;1.17;;;;;;;;;;7387951;19;20003;-69
2023/03/25 12:40:18;;;;;;;3.65;1.00;;;;;;;;;;7388897;19;19995;-69
2023/03/25 12:43:45;;;;;;;4.47;1.13;;;;;;;;;;7388144;19;20711;-70
2023/03/25 12:46:16;;;;;;;1.70;0.70;;;;;;;;;;7386236;19;20074;-69
2023/03/25 12:48:53;;;;;;;5.00;1.60;;;;;;;;;;7384159;19;20002;-70
2023/03/25 12:51:27;;;;;;;1.15;0.80;;;;;;;;;;7386996;19;19995;-70
2023/03/25 12:54:02;;;;;;;4.80;1.23;;;;;;;;;;7386930;19;20334;-70
2023/03/25 12:56:50;;;;;;;1.48;0.68;;;;;;;;;;7387170;19;20006;-69
2023/03/25 12:59:52;;;;;;;4.53;1.40;;;;;;;;;;7381753;19;20491;-68
2023/03/25 13:02:51;;;;;;;2.72;0.80;;;;;;;;;;7385129;19;20003;-69
2023/03/25 13:05:24;;;;;;;2.42;0.93;;;;;;;;;;7385732;19;20006;-68
2023/03/25 13:08:23;;;;;;;1.95;0.70;;;;;;;;;;7386893;19;20032;-68
2023/03/25 13:10:57;;;;;;;4.38;1.55;;;;;;;;;;7386127;19;20007;-69
2023/03/25 13:13:25;;;;;;;4.53;1.42;;;;;;;;;;7389425;19;20006;-70
2023/03/25 13:16:03;;;;;;;4.28;1.23;;;;;;;;;;7387697;19;20006;-69
2023/03/25 13:18:40;;;;;;;5.30;1.05;;;;;;;;;;7387540;19;20466;-69
2023/03/25 13:21:10;;;;;;;3.17;1.02;;;;;;;;;;7387388;19;20035;-69
2023/03/25 13:23:37;;;;;;;4.32;1.02;;;;;;;;;;7387333;19;20007;-69
2023/03/25 13:26:10;;;;;;;3.08;1.08;;;;;;;;;;7388044;19;20659;-69
2023/03/25 13:28:49;;;;;;;3.03;1.08;;;;;;;;;;7386894;19;20074;-69
2023/03/25 13:31:18;;;;;;;2.42;0.90;;;;;;;;;;7389682;19;20002;-69
2023/03/25 13:34:15;;;;;;;4.03;1.30;;;;;;;;;;7394388;19;20506;-68
2023/03/25 13:36:48;;;;;;;5.47;1.23;;;;;;;;;;7397843;19;20014;-69
2023/03/25 13:39:24;;;;;;;5.28;1.40;;;;;;;;;;7391931;19;20464;-69
2023/03/25 13:42:01;;;;;;;2.42;0.80;;;;;;;;;;7393823;19;19999;-69
2023/03/25 13:44:35;;;;;;;5.05;1.30;;;;;;;;;;7394387;19;20006;-68
2023/03/25 13:47:23;;;;;;;4.85;1.25;;;;;;;;;;7391516;19;20077;-70
2023/03/25 13:49:56;;;;;;;4.55;1.20;;;;;;;;;;7393946;19;20021;-70
2023/03/25 13:52:24;;;;;;;5.20;1.33;;;;;;;;;;7393155;19;20029;-70
2023/03/25 13:54:57;;;;;;;4.05;0.90;;;;;;;;;;7393700;19;20005;-71
2023/03/25 13:57:37;;;;;;;2.78;0.82;;;;;;;;;;7391165;19;20066;-70
2023/03/25 14:00:27;;;;;;;2.55;1.00;;;;;;;;;;7397865;19;20030;-70
2023/03/25 14:03:26;;;;;;;4.40;1.20;;;;;;;;;;7393453;19;20400;-70
2023/03/25 14:06:03;;;;;;;5.28;1.60;;;;;;;;;;7391785;19;20010;-70
2023/03/25 14:08:53;;;;;;;5.80;1.00;;;;;;;;;;7390997;19;20097;-70
2023/03/25 14:11:29;;;;;;;4.15;1.20;;;;;;;;;;7392180;19;20001;-70
2023/03/25 14:13:59;;;;;;;3.13;0.93;;;;;;;;;;7395732;19;20353;-69
2023/03/25 14:16:36;;;;;;;5.03;1.13;;;;;;;;;;7391448;19;20031;-69
2023/03/25 14:19:05;;;;;;;2.10;1.00;;;;;;;;;;7390618;19;20760;-69
2023/03/25 14:21:33;;;;;;;2.72;0.98;;;;;;;;;;7391586;19;20002;-69
2023/03/25 14:24:05;;;;;;;4.32;1.60;;;;;;;;;;7396308;19;20535;-70
2023/03/25 14:26:33;;;;;;;3.67;1.23;;;;;;;;;;7392960;19;20013;-70
2023/03/25 14:29:06;;;;;;;3.28;1.15;;;;;;;;;;7390045;19;20016;-69
2023/03/25 14:31:32;;;;;;;4.25;1.58;;;;;;;;;;7391624;19;20468;-70
2023/03/25 14:34:06;;;;;;;4.45;1.23;;;;;;;;;;7392776;19;19995;-70
2023/03/25 14:36:41;;;;;;;2.65;0.82;;;;;;;;;;7392369;19;20456;-70
2023/03/25 14:39:28;;;;;;;3.30;1.25;;;;;;;;;;7389702;19;20482;-70
2023/03/25 14:42:00;;;;;;;3.30;1.35;;;;;;;;;;7390976;19;20003;-70
2023/03/25 14:44:31;;;;;;;4.38;1.20;;;;;;;;;;7394633;19;20027;-70
2023/03/25 14:47:27;;;;;;;3.90;1.40;;;;;;;;;;7390498;19;20017;-69
2023/03/25 14:50:20;;;;;;;3.63;1.20;;;;;;;;;;7389618;19;20010;-69
2023/03/25 14:52:57;;;;;;;4.43;1.55;;;;;;;;;;7387505;19;19994;-69
2023/03/25 14:55:51;;;;;;;5.88;1.33;;;;;;;;;;7395290;19;20030;-69
2023/03/25 14:58:24;;;;;;;4.70;1.10;;;;;;;;;;7389159;19;20040;-69
2023/03/25 15:00:57;;;;;;;4.53;1.30;;;;;;;;;;7390476;19;19998;-69
2023/03/25 15:03:38;;;;;;;4.07;1.27;;;;;;;;;;7391107;19;20011;-69
2023/03/25 15:06:05;;;;;;;;;;;;;;;;;;7391813;19;20013;-70
2023/03/25 15:08:35;;;;;;;6.22;1.35;;;;;;;;;;7388749;19;19918;-70
2023/03/25 15:11:07;;;;;;;4.43;1.20;;;;;;;;;;7390408;19;19998;-69